sensor_id;sensor_type;location;lat;lon;timestamp;P1;durP1;ratioP1;P2;durP2;ratioP2
2474;SDS011;1248;48.694;10.160;2023-01-10T00:01:42;4.23;;;2.87;;
2474;SDS011;1248;48.694;10.160;2023-01-10T00:04:09;3.43;;;2.77;;
2474;SDS011;1248;48.694;10.160;2023-01-10T00:06:36;5.07;;;3.07;;
2474;SDS011;1248;48.694;10.160;2023-01-10T00:09:04;3.63;;;3.20;;
2474;SDS011;1248;48.694;10.160;2023-01-10T00:11:31;4.10;;;3.10;;
2474;SDS011;1248;48.694;10.160;2023-01-10T00:14:25;4.70;;;2.70;;
2474;SDS011;1248;48.694;10.160;2023-01-10T00:16:53;2.93;;;2.73;;
2474;SDS011;1248;48.694;10.160;2023-01-10T00:19:20;3.00;;;2.70;;
2474;SDS011;1248;48.694;10.160;2023-01-10T00:21:47;3.67;;;2.77;;
2474;SDS011;1248;48.694;10.160;2023-01-10T00:24:15;2.97;;;2.30;;
2474;SDS011;1248;48.694;10.160;2023-01-10T00:26:44;2.80;;;2.50;;
2474;SDS011;1248;48.694;10.160;2023-01-10T00:29:16;3.83;;;2.37;;
2474;SDS011;1248;48.694;10.160;2023-01-10T00:31:43;3.20;;;2.47;;
2474;SDS011;1248;48.694;10.160;2023-01-10T00:34:10;5.23;;;2.07;;
2474;SDS011;1248;48.694;10.160;2023-01-10T00:36:38;4.70;;;2.37;;
2474;SDS011;1248;48.694;10.160;2023-01-10T00:39:06;3.27;;;2.27;;
2474;SDS011;1248;48.694;10.160;2023-01-10T00:41:39;2.90;;;2.70;;
2474;SDS011;1248;48.694;10.160;2023-01-10T00:44:24;2.33;;;2.20;;
2474;SDS011;1248;48.694;10.160;2023-01-10T00:46:51;2.63;;;1.90;;
2474;SDS011;1248;48.694;10.160;2023-01-10T00:49:19;2.50;;;1.80;;
2474;SDS011;1248;48.694;10.160;2023-01-10T00:51:46;2.53;;;2.07;;
2474;SDS011;1248;48.694;10.160;2023-01-10T00:54:13;1.90;;;1.80;;
2474;SDS011;1248;48.694;10.160;2023-01-10T00:56:42;2.90;;;1.93;;
2474;SDS011;1248;48.694;10.160;2023-01-10T00:59:09;2.37;;;2.00;;
2474;SDS011;1248;48.694;10.160;2023-01-10T01:01:36;1.80;;;1.70;;
2474;SDS011;1248;48.694;10.160;2023-01-10T01:04:03;1.90;;;1.70;;
2474;SDS011;1248;48.694;10.160;2023-01-10T01:06:30;3.03;;;1.90;;
2474;SDS011;1248;48.694;10.160;2023-01-10T01:08:57;1.60;;;1.50;;
2474;SDS011;1248;48.694;10.160;2023-01-10T01:11:24;1.83;;;1.43;;
2474;SDS011;1248;48.694;10.160;2023-01-10T01:13:53;1.47;;;1.37;;
2474;SDS011;1248;48.694;10.160;2023-01-10T01:16:20;2.00;;;1.80;;
2474;SDS011;1248;48.694;10.160;2023-01-10T01:18:47;2.40;;;1.47;;
2474;SDS011;1248;48.694;10.160;2023-01-10T01:21:14;1.60;;;1.50;;
2474;SDS011;1248;48.694;10.160;2023-01-10T01:23:41;1.80;;;1.70;;
2474;SDS011;1248;48.694;10.160;2023-01-10T01:26:08;1.80;;;1.70;;
2474;SDS011;1248;48.694;10.160;2023-01-10T01:28:36;2.13;;;1.63;;
2474;SDS011;1248;48.694;10.160;2023-01-10T01:31:08;1.60;;;1.50;;
2474;SDS011;1248;48.694;10.160;2023-01-10T01:33:35;1.60;;;1.50;;
2474;SDS011;1248;48.694;10.160;2023-01-10T01:36:06;1.70;;;1.60;;
2474;SDS011;1248;48.694;10.160;2023-01-10T01:38:33;1.70;;;1.60;;
2474;SDS011;1248;48.694;10.160;2023-01-10T01:41:00;1.50;;;1.40;;
2474;SDS011;1248;48.694;10.160;2023-01-10T01:43:28;1.50;;;1.40;;
2474;SDS011;1248;48.694;10.160;2023-01-10T01:45:56;1.60;;;1.50;;
2474;SDS011;1248;48.694;10.160;2023-01-10T01:48:31;2.27;;;2.07;;
2474;SDS011;1248;48.694;10.160;2023-01-10T01:51:01;1.70;;;1.60;;
2474;SDS011;1248;48.694;10.160;2023-01-10T01:53:32;1.40;;;1.30;;
2474;SDS011;1248;48.694;10.160;2023-01-10T01:56:01;1.60;;;1.50;;
2474;SDS011;1248;48.694;10.160;2023-01-10T01:58:39;1.80;;;1.70;;
2474;SDS011;1248;48.694;10.160;2023-01-10T02:01:10;1.63;;;1.53;;
2474;SDS011;1248;48.694;10.160;2023-01-10T02:03:39;4.03;;;1.63;;
2474;SDS011;1248;48.694;10.160;2023-01-10T02:06:08;1.87;;;1.77;;
2474;SDS011;1248;48.694;10.160;2023-01-10T02:08:36;2.33;;;2.07;;
2474;SDS011;1248;48.694;10.160;2023-01-10T02:11:05;1.97;;;1.77;;
2474;SDS011;1248;48.694;10.160;2023-01-10T02:13:36;1.97;;;1.63;;
2474;SDS011;1248;48.694;10.160;2023-01-10T02:16:05;2.13;;;1.93;;
2474;SDS011;1248;48.694;10.160;2023-01-10T02:18:33;1.80;;;1.70;;
2474;SDS011;1248;48.694;10.160;2023-01-10T02:21:12;2.17;;;2.03;;
2474;SDS011;1248;48.694;10.160;2023-01-10T02:23:50;4.33;;;1.90;;
2474;SDS011;1248;48.694;10.160;2023-01-10T02:26:34;2.77;;;2.13;;
2474;SDS011;1248;48.694;10.160;2023-01-10T02:32:22;2.10;;;2.00;;
2474;SDS011;1248;48.694;10.160;2023-01-10T02:34:59;2.43;;;2.27;;
2474;SDS011;1248;48.694;10.160;2023-01-10T02:37:36;1.73;;;1.63;;
2474;SDS011;1248;48.694;10.160;2023-01-10T02:40:11;2.20;;;2.00;;
2474;SDS011;1248;48.694;10.160;2023-01-10T02:42:42;1.60;;;1.50;;
2474;SDS011;1248;48.694;10.160;2023-01-10T02:45:13;1.90;;;1.80;;
2474;SDS011;1248;48.694;10.160;2023-01-10T02:47:44;1.70;;;1.60;;
2474;SDS011;1248;48.694;10.160;2023-01-10T02:53:12;1.60;;;1.50;;
2474;SDS011;1248;48.694;10.160;2023-01-10T02:55:45;1.80;;;1.70;;
2474;SDS011;1248;48.694;10.160;2023-01-10T02:58:26;1.50;;;1.40;;
2474;SDS011;1248;48.694;10.160;2023-01-10T03:01:03;1.60;;;1.50;;
2474;SDS011;1248;48.694;10.160;2023-01-10T03:03:37;1.50;;;1.40;;
2474;SDS011;1248;48.694;10.160;2023-01-10T03:06:13;2.23;;;1.70;;
2474;SDS011;1248;48.694;10.160;2023-01-10T03:08:47;1.53;;;1.43;;
2474;SDS011;1248;48.694;10.160;2023-01-10T03:11:16;1.43;;;1.30;;
2474;SDS011;1248;48.694;10.160;2023-01-10T03:14:05;1.40;;;1.30;;
2474;SDS011;1248;48.694;10.160;2023-01-10T03:16:33;1.40;;;1.30;;
2474;SDS011;1248;48.694;10.160;2023-01-10T03:19:06;1.40;;;1.30;;
2474;SDS011;1248;48.694;10.160;2023-01-10T03:21:34;1.40;;;1.30;;
2474;SDS011;1248;48.694;10.160;2023-01-10T03:24:03;2.40;;;1.50;;
2474;SDS011;1248;48.694;10.160;2023-01-10T03:26:34;1.40;;;1.30;;
2474;SDS011;1248;48.694;10.160;2023-01-10T03:29:06;1.30;;;1.20;;
2474;SDS011;1248;48.694;10.160;2023-01-10T03:31:36;1.20;;;1.10;;
2474;SDS011;1248;48.694;10.160;2023-01-10T03:34:07;1.30;;;1.20;;
2474;SDS011;1248;48.694;10.160;2023-01-10T03:36:36;1.40;;;1.30;;
2474;SDS011;1248;48.694;10.160;2023-01-10T03:39:09;1.20;;;1.10;;
2474;SDS011;1248;48.694;10.160;2023-01-10T03:41:43;1.30;;;1.20;;
2474;SDS011;1248;48.694;10.160;2023-01-10T03:44:15;1.40;;;1.30;;
2474;SDS011;1248;48.694;10.160;2023-01-10T03:47:03;1.40;;;1.30;;
2474;SDS011;1248;48.694;10.160;2023-01-10T03:49:33;1.20;;;1.10;;
2474;SDS011;1248;48.694;10.160;2023-01-10T03:52:02;1.60;;;1.50;;
2474;SDS011;1248;48.694;10.160;2023-01-10T03:54:30;1.30;;;1.20;;
2474;SDS011;1248;48.694;10.160;2023-01-10T03:56:57;1.40;;;1.30;;
2474;SDS011;1248;48.694;10.160;2023-01-10T03:59:25;1.37;;;1.27;;
2474;SDS011;1248;48.694;10.160;2023-01-10T04:01:53;1.50;;;1.40;;
2474;SDS011;1248;48.694;10.160;2023-01-10T04:04:21;1.50;;;1.40;;
2474;SDS011;1248;48.694;10.160;2023-01-10T04:06:49;1.50;;;1.40;;
2474;SDS011;1248;48.694;10.160;2023-01-10T04:09:16;1.40;;;1.30;;
2474;SDS011;1248;48.694;10.160;2023-01-10T04:11:43;1.50;;;1.40;;
2474;SDS011;1248;48.694;10.160;2023-01-10T04:14:10;1.50;;;1.40;;
2474;SDS011;1248;48.694;10.160;2023-01-10T04:16:37;1.50;;;1.40;;
2474;SDS011;1248;48.694;10.160;2023-01-10T04:19:04;1.60;;;1.50;;
2474;SDS011;1248;48.694;10.160;2023-01-10T04:21:31;1.57;;;1.40;;
2474;SDS011;1248;48.694;10.160;2023-01-10T04:24:00;2.00;;;1.60;;
2474;SDS011;1248;48.694;10.160;2023-01-10T04:26:27;1.77;;;1.67;;
2474;SDS011;1248;48.694;10.160;2023-01-10T04:28:54;1.80;;;1.70;;
2474;SDS011;1248;48.694;10.160;2023-01-10T04:31:21;1.80;;;1.70;;
2474;SDS011;1248;48.694;10.160;2023-01-10T04:33:48;1.60;;;1.50;;
2474;SDS011;1248;48.694;10.160;2023-01-10T04:36:15;1.60;;;1.50;;
2474;SDS011;1248;48.694;10.160;2023-01-10T04:38:42;1.80;;;1.70;;
2474;SDS011;1248;48.694;10.160;2023-01-10T04:41:10;1.50;;;1.40;;
2474;SDS011;1248;48.694;10.160;2023-01-10T04:43:37;1.63;;;1.53;;
2474;SDS011;1248;48.694;10.160;2023-01-10T04:46:04;1.63;;;1.53;;
2474;SDS011;1248;48.694;10.160;2023-01-10T04:48:31;1.60;;;1.50;;
2474;SDS011;1248;48.694;10.160;2023-01-10T04:50:59;1.40;;;1.30;;
2474;SDS011;1248;48.694;10.160;2023-01-10T04:53:26;1.60;;;1.50;;
2474;SDS011;1248;48.694;10.160;2023-01-10T04:55:53;1.67;;;1.50;;
2474;SDS011;1248;48.694;10.160;2023-01-10T04:58:21;1.90;;;1.80;;
2474;SDS011;1248;48.694;10.160;2023-01-10T05:00:48;1.60;;;1.50;;
2474;SDS011;1248;48.694;10.160;2023-01-10T05:03:17;1.67;;;1.53;;
2474;SDS011;1248;48.694;10.160;2023-01-10T05:05:44;1.70;;;1.60;;
2474;SDS011;1248;48.694;10.160;2023-01-10T05:08:11;2.13;;;1.90;;
2474;SDS011;1248;48.694;10.160;2023-01-10T05:10:38;2.40;;;2.20;;
2474;SDS011;1248;48.694;10.160;2023-01-10T05:13:05;4.13;;;3.83;;
2474;SDS011;1248;48.694;10.160;2023-01-10T05:15:34;3.73;;;3.00;;
2474;SDS011;1248;48.694;10.160;2023-01-10T05:18:01;9.00;;;3.23;;
2474;SDS011;1248;48.694;10.160;2023-01-10T05:20:28;3.80;;;3.50;;
2474;SDS011;1248;48.694;10.160;2023-01-10T05:22:55;3.93;;;3.63;;
2474;SDS011;1248;48.694;10.160;2023-01-10T05:25:22;5.70;;;3.70;;
2474;SDS011;1248;48.694;10.160;2023-01-10T05:27:49;3.50;;;3.20;;
2474;SDS011;1248;48.694;10.160;2023-01-10T05:30:16;6.40;;;3.40;;
2474;SDS011;1248;48.694;10.160;2023-01-10T05:32:45;5.17;;;3.70;;
2474;SDS011;1248;48.694;10.160;2023-01-10T05:35:12;7.07;;;3.70;;
2474;SDS011;1248;48.694;10.160;2023-01-10T05:37:39;6.20;;;3.80;;
2474;SDS011;1248;48.694;10.160;2023-01-10T05:40:06;3.37;;;2.87;;
2474;SDS011;1248;48.694;10.160;2023-01-10T05:42:34;4.77;;;3.20;;
2474;SDS011;1248;48.694;10.160;2023-01-10T05:45:01;5.20;;;2.60;;
2474;SDS011;1248;48.694;10.160;2023-01-10T05:47:29;5.83;;;2.60;;
2474;SDS011;1248;48.694;10.160;2023-01-10T05:49:57;4.77;;;3.10;;
2474;SDS011;1248;48.694;10.160;2023-01-10T05:52:24;3.47;;;3.17;;
2474;SDS011;1248;48.694;10.160;2023-01-10T05:54:51;3.80;;;3.00;;
2474;SDS011;1248;48.694;10.160;2023-01-10T05:57:18;5.57;;;3.73;;
2474;SDS011;1248;48.694;10.160;2023-01-10T05:59:46;9.87;;;3.53;;
2474;SDS011;1248;48.694;10.160;2023-01-10T06:02:13;5.33;;;2.70;;
2474;SDS011;1248;48.694;10.160;2023-01-10T06:04:40;4.07;;;3.00;;
2474;SDS011;1248;48.694;10.160;2023-01-10T06:07:08;5.47;;;3.40;;
2474;SDS011;1248;48.694;10.160;2023-01-10T06:09:36;5.70;;;3.47;;
2474;SDS011;1248;48.694;10.160;2023-01-10T06:12:03;8.13;;;3.67;;
2474;SDS011;1248;48.694;10.160;2023-01-10T06:14:30;4.30;;;3.10;;
2474;SDS011;1248;48.694;10.160;2023-01-10T06:16:57;7.03;;;3.67;;
2474;SDS011;1248;48.694;10.160;2023-01-10T06:19:24;3.50;;;3.13;;
2474;SDS011;1248;48.694;10.160;2023-01-10T06:21:51;5.80;;;3.30;;
2474;SDS011;1248;48.694;10.160;2023-01-10T06:24:19;3.93;;;3.33;;
2474;SDS011;1248;48.694;10.160;2023-01-10T06:26:46;9.80;;;3.73;;
2474;SDS011;1248;48.694;10.160;2023-01-10T06:29:13;4.47;;;3.23;;
2474;SDS011;1248;48.694;10.160;2023-01-10T06:31:40;5.30;;;3.30;;
2474;SDS011;1248;48.694;10.160;2023-01-10T06:34:07;10.63;;;4.60;;
2474;SDS011;1248;48.694;10.160;2023-01-10T06:36:34;6.30;;;3.17;;
2474;SDS011;1248;48.694;10.160;2023-01-10T06:39:02;6.53;;;3.37;;
2474;SDS011;1248;48.694;10.160;2023-01-10T06:41:30;5.63;;;3.90;;
2474;SDS011;1248;48.694;10.160;2023-01-10T06:43:57;7.70;;;3.80;;
2474;SDS011;1248;48.694;10.160;2023-01-10T06:46:24;6.90;;;4.27;;
2474;SDS011;1248;48.694;10.160;2023-01-10T06:48:51;6.73;;;4.00;;
2474;SDS011;1248;48.694;10.160;2023-01-10T06:51:18;10.60;;;4.07;;
2474;SDS011;1248;48.694;10.160;2023-01-10T06:53:45;9.50;;;4.53;;
2474;SDS011;1248;48.694;10.160;2023-01-10T06:56:13;6.27;;;4.00;;
2474;SDS011;1248;48.694;10.160;2023-01-10T06:58:41;14.07;;;4.50;;
2474;SDS011;1248;48.694;10.160;2023-01-10T07:01:11;12.60;;;5.57;;
2474;SDS011;1248;48.694;10.160;2023-01-10T07:03:40;11.03;;;5.40;;
2474;SDS011;1248;48.694;10.160;2023-01-10T07:06:07;9.47;;;3.87;;
2474;SDS011;1248;48.694;10.160;2023-01-10T07:08:35;5.47;;;3.60;;
2474;SDS011;1248;48.694;10.160;2023-01-10T07:11:02;6.43;;;3.40;;
2474;SDS011;1248;48.694;10.160;2023-01-10T07:13:29;7.73;;;3.33;;
2474;SDS011;1248;48.694;10.160;2023-01-10T07:16:01;7.83;;;4.07;;
2474;SDS011;1248;48.694;10.160;2023-01-10T07:18:29;7.70;;;3.70;;
2474;SDS011;1248;48.694;10.160;2023-01-10T07:20:56;8.43;;;3.60;;
2474;SDS011;1248;48.694;10.160;2023-01-10T07:23:23;7.13;;;3.20;;
2474;SDS011;1248;48.694;10.160;2023-01-10T07:25:50;8.00;;;4.10;;
2474;SDS011;1248;48.694;10.160;2023-01-10T07:28:17;8.13;;;3.30;;
2474;SDS011;1248;48.694;10.160;2023-01-10T07:30:44;7.27;;;3.27;;
2474;SDS011;1248;48.694;10.160;2023-01-10T07:33:13;11.67;;;4.80;;
2474;SDS011;1248;48.694;10.160;2023-01-10T07:35:40;7.80;;;3.53;;
2474;SDS011;1248;48.694;10.160;2023-01-10T07:38:07;7.73;;;3.87;;
2474;SDS011;1248;48.694;10.160;2023-01-10T07:40:34;6.60;;;3.43;;
2474;SDS011;1248;48.694;10.160;2023-01-10T07:43:01;11.27;;;3.97;;
2474;SDS011;1248;48.694;10.160;2023-01-10T07:45:29;9.17;;;3.57;;
2474;SDS011;1248;48.694;10.160;2023-01-10T07:47:56;8.60;;;3.17;;
2474;SDS011;1248;48.694;10.160;2023-01-10T07:50:25;11.87;;;3.20;;
2474;SDS011;1248;48.694;10.160;2023-01-10T07:52:52;18.90;;;4.13;;
2474;SDS011;1248;48.694;10.160;2023-01-10T07:55:19;8.73;;;3.60;;
2474;SDS011;1248;48.694;10.160;2023-01-10T07:57:48;5.63;;;2.73;;
2474;SDS011;1248;48.694;10.160;2023-01-10T08:00:16;6.03;;;3.37;;
2474;SDS011;1248;48.694;10.160;2023-01-10T08:02:44;9.90;;;4.20;;
2474;SDS011;1248;48.694;10.160;2023-01-10T08:05:11;6.70;;;3.80;;
2474;SDS011;1248;48.694;10.160;2023-01-10T08:07:40;5.47;;;3.20;;
2474;SDS011;1248;48.694;10.160;2023-01-10T08:10:07;5.00;;;3.80;;
2474;SDS011;1248;48.694;10.160;2023-01-10T08:12:35;5.47;;;3.27;;
2474;SDS011;1248;48.694;10.160;2023-01-10T08:15:02;7.17;;;3.60;;
2474;SDS011;1248;48.694;10.160;2023-01-10T08:17:31;6.50;;;3.43;;
2474;SDS011;1248;48.694;10.160;2023-01-10T08:19:59;4.77;;;3.20;;
2474;SDS011;1248;48.694;10.160;2023-01-10T08:22:26;8.17;;;3.67;;
2474;SDS011;1248;48.694;10.160;2023-01-10T08:24:55;7.90;;;3.87;;
2474;SDS011;1248;48.694;10.160;2023-01-10T08:27:22;10.07;;;5.03;;
2474;SDS011;1248;48.694;10.160;2023-01-10T08:29:49;9.80;;;4.30;;
2474;SDS011;1248;48.694;10.160;2023-01-10T08:32:16;7.63;;;4.17;;
2474;SDS011;1248;48.694;10.160;2023-01-10T08:34:43;18.43;;;4.80;;
2474;SDS011;1248;48.694;10.160;2023-01-10T08:37:11;11.97;;;4.50;;
2474;SDS011;1248;48.694;10.160;2023-01-10T08:39:38;8.50;;;4.20;;
2474;SDS011;1248;48.694;10.160;2023-01-10T08:42:07;7.97;;;3.83;;
2474;SDS011;1248;48.694;10.160;2023-01-10T08:44:34;5.30;;;4.10;;
2474;SDS011;1248;48.694;10.160;2023-01-10T08:47:02;9.47;;;3.87;;
2474;SDS011;1248;48.694;10.160;2023-01-10T08:49:29;6.37;;;3.67;;
2474;SDS011;1248;48.694;10.160;2023-01-10T08:51:56;10.90;;;3.20;;
2474;SDS011;1248;48.694;10.160;2023-01-10T08:54:23;6.73;;;4.03;;
2474;SDS011;1248;48.694;10.160;2023-01-10T08:56:50;8.87;;;3.57;;
2474;SDS011;1248;48.694;10.160;2023-01-10T08:59:18;9.10;;;4.67;;
2474;SDS011;1248;48.694;10.160;2023-01-10T09:01:45;7.67;;;3.60;;
2474;SDS011;1248;48.694;10.160;2023-01-10T09:04:12;10.07;;;4.00;;
2474;SDS011;1248;48.694;10.160;2023-01-10T09:06:39;8.00;;;3.53;;
2474;SDS011;1248;48.694;10.160;2023-01-10T09:09:06;11.00;;;3.60;;
2474;SDS011;1248;48.694;10.160;2023-01-10T09:11:34;8.57;;;3.97;;
2474;SDS011;1248;48.694;10.160;2023-01-10T09:14:01;7.77;;;3.53;;
2474;SDS011;1248;48.694;10.160;2023-01-10T09:16:29;12.20;;;3.37;;
2474;SDS011;1248;48.694;10.160;2023-01-10T09:18:56;5.77;;;3.40;;
2474;SDS011;1248;48.694;10.160;2023-01-10T09:21:23;7.43;;;3.50;;
2474;SDS011;1248;48.694;10.160;2023-01-10T09:23:50;5.00;;;3.03;;
2474;SDS011;1248;48.694;10.160;2023-01-10T09:26:17;11.50;;;3.70;;
2474;SDS011;1248;48.694;10.160;2023-01-10T09:28:44;4.93;;;3.13;;
2474;SDS011;1248;48.694;10.160;2023-01-10T09:31:11;11.83;;;3.00;;
2474;SDS011;1248;48.694;10.160;2023-01-10T09:33:40;6.27;;;4.07;;
2474;SDS011;1248;48.694;10.160;2023-01-10T09:36:08;7.87;;;3.40;;
2474;SDS011;1248;48.694;10.160;2023-01-10T09:38:38;7.40;;;3.53;;
2474;SDS011;1248;48.694;10.160;2023-01-10T09:41:09;6.20;;;3.23;;
2474;SDS011;1248;48.694;10.160;2023-01-10T09:43:49;4.73;;;3.20;;
2474;SDS011;1248;48.694;10.160;2023-01-10T09:46:22;10.10;;;3.60;;
2474;SDS011;1248;48.694;10.160;2023-01-10T09:48:56;11.37;;;3.60;;
2474;SDS011;1248;48.694;10.160;2023-01-10T09:51:31;16.20;;;4.57;;
2474;SDS011;1248;48.694;10.160;2023-01-10T09:54:01;4.77;;;2.87;;
2474;SDS011;1248;48.694;10.160;2023-01-10T09:56:30;7.40;;;3.10;;
2474;SDS011;1248;48.694;10.160;2023-01-10T09:58:59;8.60;;;3.33;;
2474;SDS011;1248;48.694;10.160;2023-01-10T10:01:28;7.80;;;2.83;;
2474;SDS011;1248;48.694;10.160;2023-01-10T10:04:04;5.43;;;2.80;;
2474;SDS011;1248;48.694;10.160;2023-01-10T10:06:41;4.73;;;3.10;;
2474;SDS011;1248;48.694;10.160;2023-01-10T10:09:09;10.60;;;3.10;;
2474;SDS011;1248;48.694;10.160;2023-01-10T10:11:41;7.97;;;3.00;;
2474;SDS011;1248;48.694;10.160;2023-01-10T10:14:24;11.73;;;4.67;;
2474;SDS011;1248;48.694;10.160;2023-01-10T10:17:02;10.33;;;4.03;;
2474;SDS011;1248;48.694;10.160;2023-01-10T10:19:51;12.03;;;4.33;;
2474;SDS011;1248;48.694;10.160;2023-01-10T10:22:27;13.63;;;3.00;;
2474;SDS011;1248;48.694;10.160;2023-01-10T10:25:03;7.50;;;3.43;;
2474;SDS011;1248;48.694;10.160;2023-01-10T10:27:40;5.83;;;2.57;;
2474;SDS011;1248;48.694;10.160;2023-01-10T10:30:18;4.40;;;2.43;;
2474;SDS011;1248;48.694;10.160;2023-01-10T10:33:05;10.13;;;3.33;;
2474;SDS011;1248;48.694;10.160;2023-01-10T10:35:48;3.40;;;2.60;;
2474;SDS011;1248;48.694;10.160;2023-01-10T10:38:18;7.17;;;3.10;;
2474;SDS011;1248;48.694;10.160;2023-01-10T10:40:49;5.80;;;2.50;;
2474;SDS011;1248;48.694;10.160;2023-01-10T10:43:18;8.23;;;2.23;;
2474;SDS011;1248;48.694;10.160;2023-01-10T10:45:47;4.90;;;2.67;;
2474;SDS011;1248;48.694;10.160;2023-01-10T10:48:18;7.90;;;2.47;;
2474;SDS011;1248;48.694;10.160;2023-01-10T10:50:50;5.57;;;2.33;;
2474;SDS011;1248;48.694;10.160;2023-01-10T10:53:22;5.00;;;2.40;;
2474;SDS011;1248;48.694;10.160;2023-01-10T10:55:49;6.77;;;3.03;;
2474;SDS011;1248;48.694;10.160;2023-01-10T10:58:16;8.70;;;4.87;;
2474;SDS011;1248;48.694;10.160;2023-01-10T11:00:43;7.10;;;2.70;;
2474;SDS011;1248;48.694;10.160;2023-01-10T11:03:16;10.40;;;3.20;;
2474;SDS011;1248;48.694;10.160;2023-01-10T11:05:48;8.50;;;2.93;;
2474;SDS011;1248;48.694;10.160;2023-01-10T11:08:17;6.43;;;2.83;;
2474;SDS011;1248;48.694;10.160;2023-01-10T11:10:46;3.87;;;2.73;;
2474;SDS011;1248;48.694;10.160;2023-01-10T11:13:15;11.13;;;2.77;;
2474;SDS011;1248;48.694;10.160;2023-01-10T11:15:46;5.13;;;2.87;;
2474;SDS011;1248;48.694;10.160;2023-01-10T11:18:14;4.50;;;2.70;;
2474;SDS011;1248;48.694;10.160;2023-01-10T11:20:45;3.60;;;2.37;;
2474;SDS011;1248;48.694;10.160;2023-01-10T11:23:21;11.97;;;2.70;;
2474;SDS011;1248;48.694;10.160;2023-01-10T11:25:50;6.17;;;2.30;;
2474;SDS011;1248;48.694;10.160;2023-01-10T11:28:17;4.60;;;2.23;;
2474;SDS011;1248;48.694;10.160;2023-01-10T11:30:47;4.33;;;2.77;;
2474;SDS011;1248;48.694;10.160;2023-01-10T11:33:17;6.47;;;2.47;;
2474;SDS011;1248;48.694;10.160;2023-01-10T11:35:57;6.53;;;2.53;;
2474;SDS011;1248;48.694;10.160;2023-01-10T11:38:27;5.10;;;2.60;;
2474;SDS011;1248;48.694;10.160;2023-01-10T11:40:58;14.90;;;4.27;;
2474;SDS011;1248;48.694;10.160;2023-01-10T11:43:27;7.27;;;3.30;;
2474;SDS011;1248;48.694;10.160;2023-01-10T11:45:56;8.20;;;2.60;;
2474;SDS011;1248;48.694;10.160;2023-01-10T11:48:29;3.97;;;1.80;;
2474;SDS011;1248;48.694;10.160;2023-01-10T11:51:18;10.40;;;3.23;;
2474;SDS011;1248;48.694;10.160;2023-01-10T11:53:47;9.17;;;3.27;;
2474;SDS011;1248;48.694;10.160;2023-01-10T11:56:21;11.43;;;3.20;;
2474;SDS011;1248;48.694;10.160;2023-01-10T11:58:50;11.97;;;2.80;;
2474;SDS011;1248;48.694;10.160;2023-01-10T12:01:25;11.23;;;3.00;;
2474;SDS011;1248;48.694;10.160;2023-01-10T12:03:54;13.50;;;3.87;;
2474;SDS011;1248;48.694;10.160;2023-01-10T12:06:21;10.83;;;2.10;;
2474;SDS011;1248;48.694;10.160;2023-01-10T12:08:50;4.63;;;2.33;;
2474;SDS011;1248;48.694;10.160;2023-01-10T12:11:26;4.93;;;2.43;;
2474;SDS011;1248;48.694;10.160;2023-01-10T12:13:55;5.73;;;3.27;;
2474;SDS011;1248;48.694;10.160;2023-01-10T12:16:24;9.07;;;2.83;;
2474;SDS011;1248;48.694;10.160;2023-01-10T12:18:54;8.40;;;2.60;;
2474;SDS011;1248;48.694;10.160;2023-01-10T12:21:26;7.03;;;2.53;;
2474;SDS011;1248;48.694;10.160;2023-01-10T12:23:58;6.30;;;2.90;;
2474;SDS011;1248;48.694;10.160;2023-01-10T12:26:28;8.67;;;3.73;;
2474;SDS011;1248;48.694;10.160;2023-01-10T12:28:56;8.37;;;2.83;;
2474;SDS011;1248;48.694;10.160;2023-01-10T12:31:27;4.67;;;2.07;;
2474;SDS011;1248;48.694;10.160;2023-01-10T12:33:56;8.17;;;2.90;;
2474;SDS011;1248;48.694;10.160;2023-01-10T12:36:34;9.10;;;3.30;;
2474;SDS011;1248;48.694;10.160;2023-01-10T12:39:07;8.63;;;3.07;;
2474;SDS011;1248;48.694;10.160;2023-01-10T12:41:43;7.43;;;3.07;;
2474;SDS011;1248;48.694;10.160;2023-01-10T12:44:33;7.80;;;2.77;;
2474;SDS011;1248;48.694;10.160;2023-01-10T12:47:02;4.53;;;2.33;;
2474;SDS011;1248;48.694;10.160;2023-01-10T12:49:32;4.30;;;2.10;;
2474;SDS011;1248;48.694;10.160;2023-01-10T12:52:03;4.20;;;2.30;;
2474;SDS011;1248;48.694;10.160;2023-01-10T12:54:33;6.40;;;2.50;;
2474;SDS011;1248;48.694;10.160;2023-01-10T12:57:01;7.80;;;2.87;;
2474;SDS011;1248;48.694;10.160;2023-01-10T12:59:33;5.90;;;1.97;;
2474;SDS011;1248;48.694;10.160;2023-01-10T13:02:03;8.70;;;2.03;;
2474;SDS011;1248;48.694;10.160;2023-01-10T13:04:33;6.80;;;1.90;;
2474;SDS011;1248;48.694;10.160;2023-01-10T13:07:01;2.97;;;2.03;;
2474;SDS011;1248;48.694;10.160;2023-01-10T13:09:28;2.90;;;2.13;;
2474;SDS011;1248;48.694;10.160;2023-01-10T13:11:58;3.10;;;2.23;;
2474;SDS011;1248;48.694;10.160;2023-01-10T13:14:29;13.23;;;2.53;;
2474;SDS011;1248;48.694;10.160;2023-01-10T13:17:01;4.83;;;2.53;;
2474;SDS011;1248;48.694;10.160;2023-01-10T13:19:32;10.80;;;2.47;;
2474;SDS011;1248;48.694;10.160;2023-01-10T13:22:17;4.60;;;2.33;;
2474;SDS011;1248;48.694;10.160;2023-01-10T13:24:55;10.47;;;3.40;;
2474;SDS011;1248;48.694;10.160;2023-01-10T13:27:24;4.87;;;2.50;;
2474;SDS011;1248;48.694;10.160;2023-01-10T13:29:55;8.77;;;2.67;;
2474;SDS011;1248;48.694;10.160;2023-01-10T13:32:22;9.60;;;2.40;;
2474;SDS011;1248;48.694;10.160;2023-01-10T13:34:51;7.33;;;2.53;;
2474;SDS011;1248;48.694;10.160;2023-01-10T13:37:20;5.47;;;2.90;;
2474;SDS011;1248;48.694;10.160;2023-01-10T13:39:50;5.50;;;2.00;;
2474;SDS011;1248;48.694;10.160;2023-01-10T13:42:22;2.90;;;2.17;;
2474;SDS011;1248;48.694;10.160;2023-01-10T13:45:25;6.90;;;2.30;;
2474;SDS011;1248;48.694;10.160;2023-01-10T13:47:57;6.93;;;2.20;;
2474;SDS011;1248;48.694;10.160;2023-01-10T13:56:29;6.83;;;2.30;;
2474;SDS011;1248;48.694;10.160;2023-01-10T13:59:02;3.70;;;1.87;;
2474;SDS011;1248;48.694;10.160;2023-01-10T14:01:51;6.20;;;2.00;;
2474;SDS011;1248;48.694;10.160;2023-01-10T14:04:36;7.50;;;2.30;;
2474;SDS011;1248;48.694;10.160;2023-01-10T14:07:05;4.33;;;2.70;;
2474;SDS011;1248;48.694;10.160;2023-01-10T14:09:41;11.00;;;2.10;;
2474;SDS011;1248;48.694;10.160;2023-01-10T14:12:17;5.17;;;2.43;;
2474;SDS011;1248;48.694;10.160;2023-01-10T14:14:52;9.07;;;2.73;;
2474;SDS011;1248;48.694;10.160;2023-01-10T14:17:22;2.30;;;1.73;;
2474;SDS011;1248;48.694;10.160;2023-01-10T14:19:57;4.33;;;2.43;;
2474;SDS011;1248;48.694;10.160;2023-01-10T14:22:30;5.83;;;2.40;;
2474;SDS011;1248;48.694;10.160;2023-01-10T14:24:59;9.27;;;2.20;;
2474;SDS011;1248;48.694;10.160;2023-01-10T14:27:36;3.60;;;2.47;;
2474;SDS011;1248;48.694;10.160;2023-01-10T14:30:15;4.00;;;2.67;;
2474;SDS011;1248;48.694;10.160;2023-01-10T14:32:45;11.60;;;3.60;;
2474;SDS011;1248;48.694;10.160;2023-01-10T14:35:16;3.63;;;2.00;;
2474;SDS011;1248;48.694;10.160;2023-01-10T14:37:45;5.40;;;2.13;;
2474;SDS011;1248;48.694;10.160;2023-01-10T14:40:19;7.47;;;2.17;;
2474;SDS011;1248;48.694;10.160;2023-01-10T14:42:50;7.93;;;2.20;;
2474;SDS011;1248;48.694;10.160;2023-01-10T14:45:25;4.60;;;1.87;;
2474;SDS011;1248;48.694;10.160;2023-01-10T14:47:56;6.00;;;2.50;;
2474;SDS011;1248;48.694;10.160;2023-01-10T14:50:24;6.40;;;2.40;;
2474;SDS011;1248;48.694;10.160;2023-01-10T14:52:54;5.90;;;2.50;;
2474;SDS011;1248;48.694;10.160;2023-01-10T14:55:21;4.83;;;3.47;;
2474;SDS011;1248;48.694;10.160;2023-01-10T14:57:51;8.20;;;3.63;;
2474;SDS011;1248;48.694;10.160;2023-01-10T15:00:23;10.00;;;3.30;;
2474;SDS011;1248;48.694;10.160;2023-01-10T15:02:53;7.00;;;2.90;;
2474;SDS011;1248;48.694;10.160;2023-01-10T15:05:20;6.50;;;3.90;;
2474;SDS011;1248;48.694;10.160;2023-01-10T15:07:50;7.53;;;3.40;;
2474;SDS011;1248;48.694;10.160;2023-01-10T15:10:21;9.10;;;3.53;;
2474;SDS011;1248;48.694;10.160;2023-01-10T15:12:50;4.90;;;2.50;;
2474;SDS011;1248;48.694;10.160;2023-01-10T15:15:18;3.00;;;1.90;;
2474;SDS011;1248;48.694;10.160;2023-01-10T15:17:47;5.03;;;2.57;;
2474;SDS011;1248;48.694;10.160;2023-01-10T15:20:15;6.53;;;2.03;;
2474;SDS011;1248;48.694;10.160;2023-01-10T15:22:48;6.20;;;2.40;;
2474;SDS011;1248;48.694;10.160;2023-01-10T15:25:26;2.13;;;1.43;;
2474;SDS011;1248;48.694;10.160;2023-01-10T15:27:56;3.60;;;2.10;;
2474;SDS011;1248;48.694;10.160;2023-01-10T15:30:24;6.57;;;2.50;;